Kalamunda, Australia
Current Conditions -  °F | °C
As of 3:30 PM on Thursday 23 Oct 2014 (Local Time) from YPPH Reporting Station
Scattered Clouds Scattered Clouds  
Wind Chill: 70°   Ceiling: Unl
Heat Index: 70°   Visibility: 6mi
Dew Point: 54°   Wind: 16mph
Humidity: 56%   Direction: 230°SW
Pressure: 30"   Gusts: NA
Location:  31.97°S, 116.06°E
Report Text: YPPH 230730Z 23014KT 9999 SCT040 21/12 Q1016
Loading
Personal Weather Stations






























Interactive Weather Map
Tropical Storm Tracking
New forecast layout! Learn more

10-Day Weather Forecast

Advertisements
Track Severe Weather on mobile